Time;durP1;ratioP1;P1;durP2;ratioP2;P2;SDS_P1;SDS_P2;PMS_P1;PMS_P2;Temp;Humidity;BMP_temperature;BMP_pressure;BME280_temperature;BME280_humidity;BME280_pressure;Samples;Min_cycle;Max_cycle;Signal;HPM_P1;HPM_P2
2021/09/21 00:00:27;;;;;;;;;25.75;24.00;;;;;18.66;61.60;102078.09;6248553;22;45364;-72
2021/09/21 00:02:53;;;;;;;;;29.00;29.00;;;;;18.68;61.63;102087.91;6246618;22;45139;-71
2021/09/21 00:05:18;;;;;;;;;36.25;27.25;;;;;18.57;60.97;102070.41;6248223;22;46585;-71
2021/09/21 00:07:46;;;;;;;;;23.00;22.75;;;;;18.68;61.42;102085.22;6248361;22;45157;-71
2021/09/21 00:10:12;;;;;;;;;29.75;27.75;;;;;18.48;61.20;102061.78;6248202;22;45276;-72
2021/09/21 00:12:38;;;;;;;;;22.00;19.00;;;;;18.61;61.40;102085.53;6248135;22;45435;-71
2021/09/21 00:15:06;;;;;;;;;26.50;23.75;;;;;18.56;60.61;102085.78;6246857;22;46565;-71
2021/09/21 00:17:31;;;;;;;;;21.50;21.50;;;;;18.40;61.07;102069.34;6248204;22;45342;-71
2021/09/21 00:19:56;;;;;;;;;29.75;26.75;;;;;18.47;61.09;102080.75;6248346;22;45330;-71
2021/09/21 00:22:22;;;;;;;;;24.75;23.00;;;;;18.65;61.17;102108.81;6248489;22;45347;-71
2021/09/21 00:24:48;;;;;;;;;26.25;25.00;;;;;18.55;60.64;102097.53;6248306;22;45444;-71
2021/09/21 00:27:13;;;;;;;;;23.25;21.00;;;;;18.45;60.73;102091.66;6248137;22;45261;-72
2021/09/21 00:29:38;;;;;;;;;24.75;23.00;;;;;18.40;60.75;102090.09;6248022;22;45233;-72
2021/09/21 00:32:04;;;;;;;;;24.50;24.00;;;;;18.59;60.88;102120.78;6247024;22;45434;-71
2021/09/21 00:34:42;;;;;;;;;27.00;24.00;;;;;18.45;61.15;102097.06;6247932;22;45230;-71
2021/09/21 00:37:12;;;;;;;;;27.25;26.00;;;;;18.60;60.85;102121.66;6245955;22;45192;-72
2021/09/21 00:39:39;;;;;;;;;28.50;24.75;;;;;18.42;60.65;102099.03;6246615;22;45541;-71
2021/09/21 00:42:06;;;;;;;;;24.50;24.25;;;;;18.41;60.49;102090.03;6247755;22;45471;-71
2021/09/21 00:44:32;;;;;;;;;21.50;21.25;;;;;18.39;61.10;102089.19;6247718;22;46603;-71
2021/09/21 00:46:58;;;;;;;;;30.00;24.75;;;;;18.51;60.20;102107.59;6235944;22;45954;-72
2021/09/21 00:49:23;;;;;;;;;23.25;21.75;;;;;18.40;60.43;102088.25;6247908;22;45392;-71
2021/09/21 00:51:49;;;;;;;;;31.25;28.50;;;;;18.54;60.07;102108.41;6272149;22;45429;-71
2021/09/21 00:54:14;;;;;;;;;28.25;24.75;;;;;18.41;60.02;102095.44;6245734;22;47057;-71
2021/09/21 00:56:40;;;;;;;;;29.75;26.00;;;;;18.60;59.80;102127.06;6248060;22;45319;-71
2021/09/21 00:59:07;;;;;;;;;23.50;23.50;;;;;18.50;60.14;102115.78;6220206;22;45216;-71
2021/09/21 01:01:32;;;;;;;;;34.00;26.75;;;;;18.37;59.54;102093.81;6248053;22;45374;-71
2021/09/21 01:03:59;;;;;;;;;25.75;22.25;;;;;18.30;59.79;102079.69;6245843;22;48209;-71
2021/09/21 01:06:25;;;;;;;;;33.00;30.25;;;;;18.44;59.61;102095.31;6246148;22;45589;-71
2021/09/21 01:08:50;;;;;;;;;28.75;25.00;;;;;18.41;59.81;102090.03;6248175;22;45166;-71
2021/09/21 01:11:16;;;;;;;;;30.50;25.50;;;;;18.44;60.04;102107.94;6271408;22;45833;-71
2021/09/21 01:13:41;;;;;;;;;32.25;30.75;;;;;18.41;59.54;102117.06;6247770;22;45732;-71
2021/09/21 01:16:07;;;;;;;;;30.25;26.25;;;;;18.52;59.55;102138.22;6247510;22;45271;-72
2021/09/21 01:18:34;;;;;;;;;32.75;28.50;;;;;18.35;59.80;102114.63;6247706;22;45206;-71
2021/09/21 01:21:11;;;;;;;;;30.25;29.25;;;;;18.32;59.25;102110.22;6245859;22;46212;-72
2021/09/21 01:23:49;;;;;;;;;29.25;27.50;;;;;18.20;59.67;102090.97;6247617;22;46180;-71
2021/09/21 01:26:16;;;;;;;;;32.25;28.50;;;;;18.46;59.02;102127.66;6245417;22;45494;-71
2021/09/21 01:28:41;;;;;;;;;30.25;25.00;;;;;18.24;59.54;102107.00;6247573;22;45221;-71
2021/09/21 01:31:07;;;;;;;;;35.75;31.75;;;;;18.34;58.73;102129.06;6248051;22;45235;-71
2021/09/21 01:33:32;;;;;;;;;29.75;25.50;;;;;18.33;59.33;102140.84;6247588;22;45776;-71
2021/09/21 01:35:59;;;;;;;;;35.25;32.00;;;;;18.16;59.14;102114.53;6247694;22;45185;-71
2021/09/21 01:38:24;;;;;;;;;32.25;30.00;;;;;18.10;59.23;102114.78;6248155;22;45318;-71
2021/09/21 01:40:49;;;;;;;;;31.25;29.50;;;;;18.00;59.12;102105.31;6247697;22;45476;-71
2021/09/21 01:43:15;;;;;;;;;33.25;30.75;;;;;18.20;59.04;102131.50;6247525;22;45335;-71
2021/09/21 01:45:40;;;;;;;;;31.25;29.50;;;;;18.24;59.12;102141.22;6271776;22;45362;-71
2021/09/21 01:48:05;;;;;;;;;29.75;29.00;;;;;18.03;59.23;102119.56;6247613;22;45240;-71
2021/09/21 01:50:40;;;;;;;;;36.25;31.75;;;;;18.18;59.27;102142.38;6245631;22;45454;-71
2021/09/21 01:59:00;;;;;;;;;28.25;27.00;;;;;18.12;59.14;102134.53;6247387;22;45267;-71
2021/09/21 02:01:01;;;;;;;;;43.25;35.00;;;;;18.00;59.09;102113.44;6241010;22;45320;-71
2021/09/21 02:03:26;;;;;;;;;30.50;29.50;;;;;17.93;58.83;102112.81;6247819;22;45816;-71
2021/09/21 02:05:52;;;;;;;;;32.50;30.50;;;;;17.87;58.64;102124.72;6259812;22;45983;-71
2021/09/21 02:08:17;;;;;;;;;34.00;30.75;;;;;17.94;58.94;102146.97;6245371;22;45261;-71
2021/09/21 02:10:43;;;;;;;;;36.00;32.75;;;;;17.98;59.11;102153.16;6271352;22;45545;-71
2021/09/21 02:13:09;;;;;;;;;33.75;30.00;;;;;18.06;59.60;102161.78;6271171;22;48262;-71
2021/09/21 02:15:35;;;;;;;;;35.75;30.25;;;;;18.00;59.31;102154.81;6247510;22;45429;-71
2021/09/21 02:18:01;;;;;;;;;32.50;30.50;;;;;18.01;58.73;102155.69;6245962;22;45302;-71
2021/09/21 02:20:27;;;;;;;;;33.50;32.00;;;;;18.06;59.58;102173.50;6245718;22;45403;-71
2021/09/21 02:22:53;;;;;;;;;41.75;34.00;;;;;17.89;59.19;102146.28;6247513;22;46035;-71
2021/09/21 02:25:19;;;;;;;;;29.50;28.00;;;;;17.84;59.37;102142.84;6245478;22;45379;-71
2021/09/21 02:27:44;;;;;;;;;31.75;30.75;;;;;18.02;59.35;102174.53;6245409;22;45754;-71
2021/09/21 02:30:10;;;;;;;;;32.75;31.25;;;;;17.78;58.87;102133.19;6247379;22;45363;-71
2021/09/21 02:32:35;;;;;;;;;34.00;31.25;;;;;17.90;59.34;102161.56;6246800;22;46012;-71
2021/09/21 02:35:01;;;;;;;;;32.50;31.00;;;;;17.83;59.41;102158.19;6271178;22;45284;-71
2021/09/21 02:37:26;;;;;;;;;32.00;30.25;;;;;17.88;59.50;102169.72;6247381;22;45475;-71
2021/09/21 02:39:52;;;;;;;;;32.00;30.25;;;;;17.78;59.30;102154.78;6245115;22;45476;-71
2021/09/21 02:42:17;;;;;;;;;35.25;31.00;;;;;17.71;59.59;102148.75;6245277;22;45913;-71
2021/09/21 02:44:42;;;;;;;;;36.00;33.00;;;;;17.72;59.53;102158.59;6247428;22;45273;-71
2021/09/21 02:47:08;;;;;;;;;38.75;33.75;;;;;17.78;59.11;102162.91;6271539;22;45809;-71
2021/09/21 02:49:33;;;;;;;;;42.50;36.50;;;;;17.59;59.27;102120.44;6271029;22;45410;-71
2021/09/21 02:51:59;;;;;;;;;40.00;35.25;;;;;17.87;59.29;102164.38;6271248;22;46689;-71
2021/09/21 02:54:24;;;;;;;;;28.50;26.50;;;;;17.81;59.58;102169.97;6247078;22;45266;-71
2021/09/21 02:56:50;;;;;;;;;39.50;35.00;;;;;17.52;59.37;102109.91;6247614;22;45170;-71
2021/09/21 02:59:15;;;;;;;;;39.00;34.25;;;;;17.78;59.33;102169.16;6247124;22;45243;-71
2021/09/21 03:01:41;;;;;;;;;32.00;29.25;;;;;17.51;59.36;102125.25;6245196;22;46116;-71
2021/09/21 03:04:14;;;;;;;;;40.50;33.50;;;;;17.71;59.12;102159.56;6245511;22;45368;-71
2021/09/21 03:06:44;;;;;;;;;41.00;34.50;;;;;17.69;59.50;102158.75;6248586;22;45163;-71
2021/09/21 03:09:20;;;;;;;;;36.25;31.50;;;;;17.53;59.66;102141.38;6246022;22;45387;-71
2021/09/21 03:12:02;;;;;;;;;43.75;34.75;;;;;17.53;59.15;102158.47;6248280;22;45398;-71
2021/09/21 03:17:20;;;;;;;;;36.75;31.25;;;;;17.70;59.96;102184.78;6248852;22;45212;-71
2021/09/21 03:19:45;;;;;;;;;38.25;33.25;;;;;17.71;59.70;102180.28;6271943;22;45203;-71
2021/09/21 03:22:11;;;;;;;;;38.50;34.25;;;;;17.54;59.81;102159.31;6248539;22;46185;-71
2021/09/21 03:24:36;;;;;;;;;45.00;37.00;;;;;17.52;59.23;102158.50;6247772;22;45174;-71
2021/09/21 03:27:02;;;;;;;;;43.00;34.75;;;;;17.56;59.40;102179.06;6248382;22;45161;-71
2021/09/21 03:29:28;;;;;;;;;38.00;33.25;;;;;17.39;59.11;102155.41;6247910;22;45432;-71
2021/09/21 03:31:54;;;;;;;;;43.00;36.25;;;;;17.37;59.42;102150.09;6248362;22;46120;-71
2021/09/21 03:34:19;;;;;;;;;38.00;34.00;;;;;17.48;59.77;102181.19;6271723;22;45334;-71
2021/09/21 03:36:44;;;;;;;;;43.50;35.25;;;;;17.40;59.26;102171.53;6272023;22;45267;-71
2021/09/21 03:39:10;;;;;;;;;41.50;35.25;;;;;17.16;59.59;102142.81;6271729;22;45342;-71
2021/09/21 03:41:35;;;;;;;;;40.25;34.25;;;;;17.29;59.68;102170.19;6271627;22;47229;-71
2021/09/21 03:44:01;;;;;;;;;36.50;33.00;;;;;17.37;59.96;102186.97;6246397;22;45972;-71
2021/09/21 03:46:26;;;;;;;;;42.00;35.75;;;;;17.37;59.44;102176.19;6248542;22;45234;-71
2021/09/21 03:48:54;;;;;;;;;41.75;35.25;;;;;17.33;59.66;102161.94;6247840;22;45410;-71
2021/09/21 03:51:20;;;;;;;;;38.75;34.50;;;;;17.52;59.34;102193.63;6248115;22;45352;-71
2021/09/21 03:53:46;;;;;;;;;48.00;39.00;;;;;17.59;59.52;102208.63;6246345;22;45204;-71
2021/09/21 03:56:11;;;;;;;;;44.25;37.50;;;;;17.55;59.71;102196.19;6248161;22;45140;-71
2021/09/21 03:58:36;;;;;;;;;40.75;35.00;;;;;17.40;59.47;102170.66;6245778;22;45846;-71
2021/09/21 04:01:02;;;;;;;;;41.25;35.00;;;;;17.40;59.32;102166.13;6271956;22;48128;-71
2021/09/21 04:03:27;;;;;;;;;47.75;37.50;;;;;17.62;59.66;102205.81;6246110;22;46054;-71
2021/09/21 04:05:53;;;;;;;;;40.75;35.00;;;;;17.47;59.15;102190.22;6246260;22;45497;-71
2021/09/21 04:08:18;;;;;;;;;44.00;35.00;;;;;17.42;58.79;102184.97;6247942;22;45426;-71
2021/09/21 04:10:43;;;;;;;;;44.25;36.50;;;;;17.39;59.25;102185.09;6246018;22;47551;-71
2021/09/21 04:13:09;;;;;;;;;45.00;37.00;;;;;17.42;59.35;102195.78;6245892;22;45436;-71
2021/09/21 04:15:34;;;;;;;;;47.50;39.00;;;;;17.41;59.23;102188.63;6247929;22;45306;-71
2021/09/21 04:18:04;;;;;;;;;43.75;36.00;;;;;17.43;59.46;102188.59;6247702;22;45288;-71
2021/09/21 04:20:29;;;;;;;;;41.50;36.50;;;;;17.57;59.24;102224.00;6245765;22;47162;-71
2021/09/21 04:22:55;;;;;;;;;47.75;40.00;;;;;17.35;58.87;102188.88;6248222;22;45249;-71
2021/09/21 04:25:20;;;;;;;;;44.50;37.50;;;;;17.19;59.00;102170.56;6272114;22;45751;-71
2021/09/21 04:27:47;;;;;;;;;40.25;34.00;;;;;17.30;59.22;102199.81;6247895;22;45352;-71
2021/09/21 04:30:18;;;;;;;;;46.75;37.25;;;;;17.29;58.88;102195.38;6247815;22;45247;-71
2021/09/21 04:32:43;;;;;;;;;42.50;36.00;;;;;17.30;59.15;102205.22;6247945;22;45170;-71
2021/09/21 04:35:09;;;;;;;;;47.00;39.50;;;;;17.29;59.20;102205.28;6248216;22;45201;-71
2021/09/21 04:37:35;;;;;;;;;45.00;36.50;;;;;17.31;59.13;102222.31;6238833;22;45305;-71
2021/09/21 04:40:00;;;;;;;;;46.25;36.00;;;;;17.44;58.75;102241.63;6247761;22;45248;-71
2021/09/21 04:42:26;;;;;;;;;42.75;35.00;;;;;17.17;58.95;102201.22;6247805;22;45216;-71
2021/09/21 04:44:52;;;;;;;;;46.75;39.50;;;;;17.27;59.10;102221.53;6245930;22;45181;-71
2021/09/21 04:47:17;;;;;;;;;45.50;38.25;;;;;17.26;59.17;102233.28;6248075;22;45149;-71
2021/09/21 04:49:43;;;;;;;;;44.00;38.00;;;;;17.15;59.47;102217.47;6247403;22;45597;-71
2021/09/21 04:52:08;;;;;;;;;43.00;37.75;;;;;17.15;59.06;102216.59;6247933;22;45384;-71
2021/09/21 04:54:33;;;;;;;;;49.75;40.50;;;;;17.05;58.54;102207.94;6248206;22;45281;-71
2021/09/21 04:56:59;;;;;;;;;48.25;39.25;;;;;17.15;58.67;102249.84;6247843;22;45403;-71
2021/09/21 04:59:26;;;;;;;;;43.25;37.00;;;;;17.09;59.02;102247.38;6247444;22;45361;-71
2021/09/21 05:01:52;;;;;;;;;47.75;38.50;;;;;16.83;58.98;102208.69;6271487;22;45603;-71
2021/09/21 05:04:17;;;;;;;;;47.50;40.00;;;;;16.84;59.24;102220.38;6248451;22;45407;-71
2021/09/21 05:06:42;;;;;;;;;47.25;39.50;;;;;16.81;59.11;102234.81;6248119;22;45312;-71
2021/09/21 05:09:12;;;;;;;;;48.25;40.00;;;;;16.70;59.19;102218.13;6247641;22;45424;-71
2021/09/21 05:11:38;;;;;;;;;44.50;38.00;;;;;16.60;59.10;102211.31;6247745;22;45150;-71
2021/09/21 05:14:03;;;;;;;;;44.25;37.00;;;;;16.80;59.24;102237.56;6247691;22;45233;-71
2021/09/21 05:16:29;;;;;;;;;45.50;38.00;;;;;16.75;59.35;102232.34;6247380;22;45332;-71
2021/09/21 05:18:54;;;;;;;;;47.25;39.50;;;;;16.83;59.02;102245.56;6271546;22;46968;-71
2021/09/21 05:21:20;;;;;;;;;45.25;38.00;;;;;16.78;58.88;102252.94;6271366;22;45342;-71
2021/09/21 05:23:45;;;;;;;;;46.00;37.75;;;;;16.61;59.00;102242.72;6247583;22;45472;-71
2021/09/21 05:26:10;;;;;;;;;41.75;35.25;;;;;16.49;58.82;102222.47;6270841;22;45347;-71
2021/09/21 05:28:36;;;;;;;;;46.75;38.25;;;;;16.67;58.80;102267.66;6244985;22;46239;-71
2021/09/21 05:31:01;;;;;;;;;39.50;32.75;;;;;16.60;59.06;102247.22;6246045;22;45441;-71
2021/09/21 05:33:27;;;;;;;;;39.25;34.00;;;;;16.52;58.96;102227.72;6247602;22;45352;-71
2021/09/21 05:35:53;;;;;;;;;46.75;38.00;;;;;16.55;58.79;102259.09;6271228;22;45455;-71
2021/09/21 05:38:18;;;;;;;;;40.75;35.50;;;;;16.43;58.79;102245.09;6247591;22;45573;-71
2021/09/21 05:40:44;;;;;;;;;44.25;36.50;;;;;16.49;58.93;102269.16;6270970;22;45110;-71
2021/09/21 05:43:09;;;;;;;;;41.00;35.75;;;;;16.48;59.04;102267.38;6247731;22;45074;-72
2021/09/21 05:45:35;;;;;;;;;42.25;36.25;;;;;16.63;59.12;102292.06;6247686;22;45372;-71
2021/09/21 05:48:01;;;;;;;;;39.75;34.50;;;;;16.65;59.29;102290.19;6247390;22;45214;-71
2021/09/21 05:50:26;;;;;;;;;42.75;33.50;;;;;16.46;58.81;102263.84;6248057;22;45308;-71
2021/09/21 05:52:52;;;;;;;;;47.25;38.00;;;;;16.64;58.97;102302.81;6248121;22;45413;-71
2021/09/21 05:55:17;;;;;;;;;45.25;36.25;;;;;16.49;58.86;102279.06;6271280;22;45141;-71
2021/09/21 05:57:44;;;;;;;;;40.75;33.75;;;;;16.53;58.46;102302.28;6247263;22;47183;-71
2021/09/21 06:00:11;;;;;;;;;44.75;36.25;;;;;16.34;58.38;102274.16;6245495;22;45771;-71
2021/09/21 06:02:36;;;;;;;;;35.00;32.00;;;;;16.42;58.58;102297.25;6247640;22;45398;-71
2021/09/21 06:05:02;;;;;;;;;39.00;32.50;;;;;16.21;58.04;102270.97;6270023;22;45497;-71
2021/09/21 06:07:27;;;;;;;;;40.25;33.00;;;;;16.22;58.57;102275.41;6246546;22;47630;-71
2021/09/21 06:09:53;;;;;;;;;44.50;36.50;;;;;16.22;58.51;102275.41;6247372;22;45323;-71
2021/09/21 06:12:21;;;;;;;;;35.75;31.50;;;;;16.18;58.35;102287.25;6245273;22;45355;-74
2021/09/21 06:15:12;;;;;;;;;33.75;31.00;;;;;16.09;58.80;102266.88;6246973;22;45424;-75
2021/09/21 06:17:40;;;;;;;;;35.50;32.00;;;;;16.24;59.04;102290.63;6246307;22;46112;-74
2021/09/21 06:20:09;;;;;;;;;35.75;32.00;;;;;16.19;58.61;102297.97;6246829;22;45522;-75
2021/09/21 06:22:37;;;;;;;;;41.00;33.00;;;;;16.07;58.36;102263.31;6247173;22;45394;-75
2021/09/21 06:25:04;;;;;;;;;35.00;31.25;;;;;16.34;58.46;102310.09;6247499;22;45359;-75
2021/09/21 06:27:29;;;;;;;;;36.00;32.50;;;;;16.18;58.37;102288.09;6246947;22;45257;-74
2021/09/21 06:29:55;;;;;;;;;32.00;29.00;;;;;16.12;58.04;102293.69;6245826;22;45319;-74
2021/09/21 06:32:20;;;;;;;;;33.00;28.75;;;;;16.24;57.92;102320.25;6245515;22;45388;-74
2021/09/21 06:34:45;;;;;;;;;32.25;29.25;;;;;16.18;58.27;102315.06;6246997;22;45467;-74
2021/09/21 06:37:11;;;;;;;;;31.50;28.75;;;;;16.03;58.08;102291.28;6246796;22;45272;-75
2021/09/21 06:39:37;;;;;;;;;35.25;31.75;;;;;16.09;57.38;102299.19;6246002;22;45241;-71
2021/09/21 06:42:02;;;;;;;;;34.25;26.75;;;;;15.96;57.48;102301.38;6247217;22;45353;-74
2021/09/21 06:44:30;;;;;;;;;37.75;31.00;;;;;16.20;57.44;102333.88;6246941;22;45146;-75
2021/09/21 06:46:55;;;;;;;;;37.25;30.25;;;;;15.87;57.11;102291.75;6247416;22;45316;-74
2021/09/21 06:49:21;;;;;;;;;30.50;28.25;;;;;16.04;57.51;102328.94;6242675;22;45320;-70
2021/09/21 06:51:46;;;;;;;;;25.75;24.50;;;;;15.89;57.62;102299.78;6246280;22;45342;-71
2021/09/21 06:54:11;;;;;;;;;29.00;24.50;;;;;15.97;57.74;102318.41;6246168;22;45312;-70
2021/09/21 06:56:37;;;;;;;;;29.50;29.25;;;;;16.28;57.54;102380.31;6246109;22;45333;-71
2021/09/21 06:59:02;;;;;;;;;29.75;26.00;;;;;16.07;57.01;102338.72;6246023;22;45360;-70
2021/09/21 07:01:29;;;;;;;;;25.75;25.25;;;;;16.22;56.62;102372.41;6243148;22;45317;-71
2021/09/21 07:03:54;;;;;;;;;26.00;24.00;;;;;16.19;56.68;102380.59;6242148;22;45644;-70
2021/09/21 07:06:20;;;;;;;;;27.25;27.25;;;;;15.92;56.56;102343.66;6244295;22;45487;-70
2021/09/21 07:08:45;;;;;;;;;24.50;24.00;;;;;15.93;57.05;102352.63;6244954;22;45265;-70
2021/09/21 07:11:13;;;;;;;;;9.25;7.75;;;;;16.04;56.57;102372.03;6246490;22;45217;-70
2021/09/21 07:13:39;;;;;;;;;29.25;26.00;;;;;15.90;56.91;102347.31;6243870;22;45498;-70
2021/09/21 07:16:05;;;;;;;;;27.00;26.00;;;;;16.15;57.03;102385.19;6268929;22;47029;-70
2021/09/21 07:18:30;;;;;;;;;29.75;28.50;;;;;16.06;56.41;102375.56;6243849;22;45294;-70
2021/09/21 07:20:56;;;;;;;;;27.25;24.00;;;;;15.92;56.90;102358.91;6270025;22;45362;-70
2021/09/21 07:23:21;;;;;;;;;21.75;21.00;;;;;16.13;56.23;102405.03;6246003;22;45431;-70
2021/09/21 07:25:47;;;;;;;;;22.50;21.75;;;;;16.04;56.76;102387.34;6245980;22;45402;-70
2021/09/21 07:28:12;;;;;;;;;29.75;28.75;;;;;16.09;56.91;102409.63;6244762;22;45288;-70
2021/09/21 07:30:38;;;;;;;;;21.75;21.25;;;;;16.23;56.83;102426.25;6245650;22;45828;-70
2021/09/21 07:33:05;;;;;;;;;24.75;23.75;;;;;16.17;56.40;102414.78;6245330;22;45523;-70
2021/09/21 07:35:30;;;;;;;;;22.50;22.00;;;;;16.06;55.78;102409.72;6246140;22;46204;-70
2021/09/21 07:37:56;;;;;;;;;26.50;25.00;;;;;16.07;55.77;102419.53;6245555;22;45343;-70
2021/09/21 07:40:21;;;;;;;;;26.75;23.75;;;;;15.96;55.63;102408.22;6244853;22;45310;-70
2021/09/21 07:42:48;;;;;;;;;27.25;23.50;;;;;15.92;56.29;102411.00;6245848;22;45348;-70
2021/09/21 07:45:15;;;;;;;;;29.00;28.00;;;;;15.96;56.27;102419.00;6245460;22;45908;-70
2021/09/21 07:47:40;;;;;;;;;21.75;21.25;;;;;15.80;56.11;102397.84;6246197;22;45209;-70
2021/09/21 07:50:08;;;;;;;;;21.25;21.00;;;;;15.89;55.95;102412.91;6242391;22;45483;-70
2021/09/21 07:52:33;;;;;;;;;24.00;23.50;;;;;15.98;55.44;102435.97;6244741;22;45900;-70
2021/09/21 07:54:59;;;;;;;;;14.25;14.25;;;;;15.76;56.17;102390.81;6246678;22;45265;-70
2021/09/21 07:57:26;;;;;;;;;17.75;16.75;;;;;15.94;55.88;102421.72;6245186;22;45734;-70
2021/09/21 07:59:51;;;;;;;;;19.50;17.00;;;;;15.76;55.66;102381.84;6246625;22;45358;-70
2021/09/21 08:02:17;;;;;;;;;20.75;19.00;;;;;15.97;55.11;102418.03;6246853;22;45329;-70
2021/09/21 08:04:42;;;;;;;;;16.00;15.50;;;;;15.87;55.20;102401.25;6246720;22;45295;-70
2021/09/21 08:07:09;;;;;;;;;14.00;13.00;;;;;15.89;55.83;102404.81;6247471;22;45586;-70
2021/09/21 08:09:36;;;;;;;;;17.75;17.75;;;;;16.11;55.39;102430.19;6248324;22;45496;-71
2021/09/21 08:12:03;;;;;;;;;17.25;16.25;;;;;15.93;55.50;102387.63;6245294;22;45505;-72
2021/09/21 08:14:29;;;;;;;;;20.50;19.75;;;;;16.22;55.38;102431.69;6247086;22;46104;-72
2021/09/21 08:16:54;;;;;;;;;18.50;16.00;;;;;16.14;55.13;102422.94;6247451;22;45292;-70
2021/09/21 08:19:20;;;;;;;;;15.00;15.00;;;;;16.06;54.19;102390.84;6246736;22;45357;-70
2021/09/21 08:21:45;;;;;;;;;14.50;13.50;;;;;16.14;54.40;102410.38;6247363;22;45265;-70
2021/09/21 08:24:11;;;;;;;;;18.25;14.75;;;;;16.32;54.67;102437.69;6247487;22;45522;-70
2021/09/21 08:26:36;;;;;;;;;13.50;13.50;;;;;16.12;54.18;102390.66;6245625;22;45277;-70
2021/09/21 08:29:02;;;;;;;;;14.75;13.50;;;;;16.27;54.48;102424.34;6242906;22;45344;-69
2021/09/21 08:31:27;;;;;;;;;17.00;15.25;;;;;16.25;54.25;102428.91;6246335;22;45265;-69
2021/09/21 08:33:53;;;;;;;;;16.75;15.50;;;;;16.41;54.01;102441.00;6244468;22;47445;-69
2021/09/21 08:36:18;;;;;;;;;12.75;12.75;;;;;16.34;53.58;102423.25;6245087;22;45312;-70
2021/09/21 08:38:44;;;;;;;;;14.25;12.75;;;;;16.49;53.92;102447.06;6246673;22;45764;-70
2021/09/21 08:41:10;;;;;;;;;12.50;10.75;;;;;16.35;53.73;102422.31;6246596;22;45396;-70
2021/09/21 08:43:35;;;;;;;;;14.75;14.00;;;;;16.26;52.96;102403.75;6245836;22;45522;-69
2021/09/21 08:46:01;;;;;;;;;14.00;13.00;;;;;16.30;52.84;102414.41;6246932;22;45226;-70
2021/09/21 08:48:27;;;;;;;;;13.50;12.50;;;;;16.44;52.47;102449.00;6246446;22;45829;-70
2021/09/21 08:50:53;;;;;;;;;17.00;13.50;;;;;16.33;53.44;102426.00;6269641;22;45455;-70
2021/09/21 08:53:18;;;;;;;;;13.25;13.25;;;;;16.37;52.73;102439.34;6245120;22;47898;-69
2021/09/21 08:55:44;;;;;;;;;12.50;12.00;;;;;16.37;52.79;102433.97;6246944;22;45344;-70
2021/09/21 08:58:09;;;;;;;;;19.00;18.50;;;;;16.46;52.79;102443.56;6246672;22;45489;-69
2021/09/21 09:00:35;;;;;;;;;14.75;13.75;;;;;16.46;52.47;102440.88;6244581;22;45277;-69
2021/09/21 09:03:11;;;;;;;;;18.00;16.00;;;;;16.62;52.22;102471.84;6245431;22;45425;-69
2021/09/21 09:05:54;;;;;;;;;14.00;13.25;;;;;16.57;52.51;102456.72;6246042;22;45307;-69
2021/09/21 09:08:41;;;;;;;;;14.50;13.50;;;;;16.42;52.67;102418.53;6245118;22;45305;-69
2021/09/21 09:11:28;;;;;;;;;15.25;14.25;;;;;16.47;52.54;102423.75;6245431;22;45418;-75
2021/09/21 09:14:01;;;;;;;;;14.00;12.25;;;;;16.47;52.17;102426.44;6244040;22;47230;-75
2021/09/21 09:17:04;;;;;;;;;10.00;9.50;;;;;16.66;52.69;102451.06;6238899;22;45337;-70
2021/09/21 09:19:59;;;;;;;;;10.75;10.75;;;;;16.64;52.66;102436.75;6215599;22;45399;-71
2021/09/21 09:22:28;;;;;;;;;14.00;13.75;;;;;16.63;52.48;102426.88;6186809;22;45348;-70
2021/09/21 09:25:07;;;;;;;;;13.00;11.25;;;;;16.72;52.15;102431.97;6215760;22;45697;-70
2021/09/21 09:27:44;;;;;;;;;13.00;11.75;;;;;16.74;52.17;102432.81;6216312;22;45808;-70
2021/09/21 09:30:16;;;;;;;;;15.75;13.25;;;;;16.75;52.08;102425.59;6211250;22;45379;-71
2021/09/21 09:32:54;;;;;;;;;13.50;12.50;;;;;16.73;51.78;102424.78;6214622;22;45415;-72
2021/09/21 09:35:27;;;;;;;;;15.50;14.75;;;;;16.89;51.63;102442.28;6216592;22;45880;-70
2021/09/21 09:37:55;;;;;;;;;15.75;15.75;;;;;16.95;51.77;102454.69;6216162;22;45473;-71
2021/09/21 09:40:21;;;;;;;;;15.75;14.50;;;;;16.96;51.79;102451.94;6215771;22;45373;-71
2021/09/21 09:42:49;;;;;;;;;16.75;15.75;;;;;16.81;51.11;102429.00;6215029;22;45621;-71
2021/09/21 09:45:29;;;;;;;;;14.75;14.75;;;;;16.81;51.57;102429.00;6215107;22;45416;-71
2021/09/21 09:47:55;;;;;;;;;18.75;16.25;;;;;16.85;51.21;102449.56;6216158;22;45297;-71
2021/09/21 09:50:29;;;;;;;;;15.00;12.50;;;;;16.90;50.97;102457.50;6216083;22;45273;-71
2021/09/21 09:53:06;;;;;;;;;19.00;18.00;;;;;16.96;51.25;102464.53;6216417;22;45316;-71
2021/09/21 09:55:45;;;;;;;;;17.50;16.00;;;;;16.95;50.86;102450.16;6216438;22;46068;-72
2021/09/21 09:58:14;;;;;;;;;17.75;17.75;;;;;16.88;51.04;102437.81;6215854;22;45391;-71
2021/09/21 10:00:54;;;;;;;;;;;;;;;;;;;;;
2021/09/21 10:03:25;;;;;;;;;19.50;18.50;;;;;17.16;51.34;102466.59;6214825;22;73036;-71
2021/09/21 10:05:54;;;;;;;;;15.25;14.75;;;;;17.12;51.26;102451.44;6215490;22;46363;-71
2021/09/21 10:08:24;;;;;;;;;15.25;15.25;;;;;17.27;51.47;102468.94;6214327;22;45705;-71
2021/09/21 10:11:11;;;;;;;;;;;;;;;;;;;;;
2021/09/21 10:13:44;;;;;;;;;17.25;16.75;;;;;17.31;50.97;102468.78;6214297;22;72720;-71
2021/09/21 10:16:14;;;;;;;;;17.00;17.00;;;;;17.35;50.95;102470.44;6241798;22;46351;-71
2021/09/21 10:19:03;;;;;;;;;21.75;17.00;;;;;17.33;51.08;102460.63;6244662;22;45255;-71
2021/09/21 10:21:40;;;;;;;;;22.25;19.25;;;;;17.43;51.10;102474.72;6246637;22;45321;-71
2021/09/21 10:24:11;;;;;;;;;19.75;17.75;;;;;17.51;51.80;102492.41;6244435;22;45267;-71
2021/09/21 10:26:45;;;;;;;;;17.25;16.75;;;;;17.36;51.10;102439.81;6246341;22;45472;-71
2021/09/21 10:29:38;;;;;;;;;16.75;16.25;;;;;17.43;50.90;102442.31;6245549;22;45599;-72
2021/09/21 10:32:25;;;;;;;;;26.25;24.25;;;;;17.38;50.39;102446.03;6244469;22;45405;-71
2021/09/21 10:34:58;;;;;;;;;24.75;23.00;;;;;17.32;50.58;102434.56;6246282;22;45474;-71
2021/09/21 10:37:31;;;;;;;;;20.50;19.25;;;;;17.45;50.30;102454.81;6246080;22;45689;-71
2021/09/21 10:40:01;;;;;;;;;23.25;22.75;;;;;17.43;50.47;102445.03;6265833;22;45582;-71
2021/09/21 10:42:27;;;;;;;;;21.75;20.00;;;;;17.53;50.70;102459.97;6277089;22;45339;-71
2021/09/21 10:44:58;;;;;;;;;21.25;20.75;;;;;17.68;50.92;102474.75;6276763;22;45585;-71
2021/09/21 10:48:13;;;;;;;;;21.00;21.00;;;;;17.54;51.28;102440.13;6273895;22;45690;-71
2021/09/21 10:50:54;;;;;;;;;;;;;;;;;;;;;
2021/09/21 10:53:55;;;;;;;;;;;;;;;;;;;;;
2021/09/21 10:57:26;;;;;;;;;;;;;;;;;;;;;
2021/09/21 11:00:09;;;;;;;;;24.25;22.00;;;;;17.98;50.84;102474.66;6191741;22;75222;-71
2021/09/21 11:03:07;;;;;;;;;25.75;24.00;;;;;17.86;50.02;102451.59;6248761;22;45407;-72
2021/09/21 11:06:01;;;;;;;;;26.00;24.50;;;;;17.76;49.78;102437.56;6247549;22;45304;-72
2021/09/21 11:08:46;;;;;;;;;25.50;23.75;;;;;17.97;49.98;102462.94;6271197;22;45273;-71
2021/09/21 11:11:25;;;;;;;;;;;;;;;;;;;;;
2021/09/21 11:13:58;;;;;;;;;26.75;24.25;;;;;17.85;50.19;102430.94;6273796;22;73330;-71
2021/09/21 11:16:33;;;;;;;;;21.75;21.75;;;;;17.94;49.97;102433.31;6275248;22;45332;-71
2021/09/21 11:19:05;;;;;;;;;23.00;23.00;;;;;18.14;50.04;102467.72;6275189;22;45591;-71
2021/09/21 11:21:36;;;;;;;;;22.50;21.25;;;;;18.01;50.05;102433.97;6273243;22;48105;-71
2021/09/21 11:24:08;;;;;;;;;25.25;22.25;;;;;18.18;50.20;102450.47;6275032;22;45598;-71
2021/09/21 11:26:33;;;;;;;;;24.00;21.75;;;;;17.97;49.75;102403.50;6275818;22;45598;-71
2021/09/21 11:29:14;;;;;;;;;24.25;21.75;;;;;18.04;50.27;102404.16;6276165;22;45582;-71
2021/09/21 11:32:04;;;;;;;;;26.25;26.25;;;;;18.28;49.93;102451.00;6275497;22;45213;-71